Leominster, MA (01453)

11:45 PM EDT on August 02, 2015 (GMT -0400)
Fallbrook/Sholan Area | | Change Station
CLOSE
Current Station
Personal Weather Station
Location: Leominster, MA
Elevation: 595 ft
Nearby Weather Stations

Elev 595 ft 42.50 °N, 71.77 °W | Updated 30 seconds ago

Clear
Clear
68.0 °F
Feels Like 68.0 °F
N
0.0
Wind Variable Wind from West
Gusts 1.0 mph

Today
High -- | Low -- °F
--% Chance of Precip.
Yesterday
High -- | Low -- °F
Precip. -- in
5:39 AM 8:06 PM
Waning Gibbous, 90% visible
Pressure 29.86 in
Visibility 10.0 miles
Clouds Clear
Dew Point 61 °F
Humidity 79%
Rainfall 0.00 in
Snow Depth Not available.
UV 0 out of 12
Pollen 5.50 out of 12
Air Quality Not available.
Flu Activity Not available.
METAR KFIT 030252Z AUTO 20007KT 10SM CLR 23/14 A2987 RMK AO2 SLP111 T02280144 58005

More Conditions Fewer Conditions

Pressure 29.86 in
Visibility 10.0 miles
Clouds Clear
Dew Point 61 °F
Humidity 79%
Rainfall 0.00 in
Snow Depth Not available.
UV 0 out of 12
Pollen 5.50 out of 12
Air Quality Not available.
Flu Activity Not available.
METAR KFIT 030252Z AUTO 20007KT 10SM CLR 23/14 A2987 RMK AO2 SLP111 T02280144 58005

More Conditions Fewer Conditions

10-Day Weather Forecast

×

Almanac

Astronomy

Aug. 02, 2015 Rise Set
Actual Time
Civil Twilight
Nautical Twilight
Astronomical Twilight
Moon
Length of Visible Light
Length of Day
Tomorrow will be .
, % of the Moon is Illuminated

Today's Extremes

State Highs State Lows

Community

WunderPhotos

Upload Photos

1,843,565 photos uploaded!

WunderBlogs® & News

Nearby

Air Quality

  Air Quality AQ Index Pollutant
Not available.

Snow Depth

Station Depth Elevation

Earthquake Activity

City Distance Mag. Time & Date
Minimum magnitude displayed is 2.5.

Coastal Water Temperatures

Place Temperature

Stations

Nearby Weather Stations

Station Location Temp. Windchill Dew Point Humidity Wind Precip. Elev Updated Type